Lupton City, TN

6:54 PM EST on March 03, 2015 (GMT -0500)
McMinn County | Change Station
CLOSE
Current Station
Airport
Location: Athens McMinn County Airport,
Elevation: 873 ft
Nearby Weather Stations
Active Advisory: Winter Storm Watch

Elev 873 ft 35.40 °N, 84.56 °W | Updated 19 minutes ago

Overcast
Overcast
54 °F
Feels Like 54 °F
N
4
Wind Variable Wind from SW

Today
High -- | Low -- °F
--% Chance of Precip.
Yesterday
High -- | Low -- °F
Precip. -- in
7:08 AM 6:38 PM
Waxing Gibbous, 97% visible
Pressure 30.06 in
Visibility 2.5 miles
Clouds Overcast 500 ft
Dew Point 54 °F
Humidity 100%
Rainfall 0.00 in
Snow Depth Not available.
UV 0 out of 12
Pollen .70 out of 12
Air Quality Not available.
Flu Activity Not available.
METAR KMMI 032335Z AUTO 23003KT 2 1/2SM OVC005 12/12 A3006 RMK

More Conditions Fewer Conditions

Pressure 30.06 in
Visibility 2.5 miles
Clouds Overcast 500 ft
Dew Point 54 °F
Humidity 100%
Rainfall 0.00 in
Snow Depth Not available.
UV 0 out of 12
Pollen .70 out of 12
Air Quality Not available.
Flu Activity Not available.
METAR KMMI 032335Z AUTO 23003KT 2 1/2SM OVC005 12/12 A3006 RMK

More Conditions Fewer Conditions

10-Day Weather Forecast

Almanac

Astronomy

Mar. 03, 2015 Rise Set
Actual Time
Civil Twilight
Nautical Twilight
Astronomical Twilight
Moon
Length of Visible Light
Length of Day
Tomorrow will be .
, % of the Moon is Illuminated

Today's Extremes

State Highs State Lows

Community

WunderPhotos

Upload Photos

1,802,305 photos uploaded!

WunderBlogs® & News

Nearby

Air Quality

  Air Quality AQ Index Pollutant
Not available.

Snow Depth

Station Depth Elevation

Earthquake Activity

City Distance Mag. Time & Date
Minimum magnitude displayed is 2.5.

Coastal Water Temperatures

Place Temperature

Nearby Weather Stations

Winter Storm Watch
Statement as of 3:49 PM EST on March 03, 2015

... Winter Storm Watch in effect from late Wednesday night through
Thursday afternoon...

The National Weather Service in Morristown has issued a Winter
Storm Watch... which is in effect from late Wednesday night
through Thursday afternoon.

* Event... wintry mix of freezing rain changing to sleet and snow.

* Timing... beginning around midnight Wednesday night and continuing
until 4 PM EST Thursday afternoon.

* Impacts... freezing rain accumulations a quarter of an inch or
less... changing over to sleet and snow with accumulations
generally 2 inches or less.

Precautionary/preparedness actions...

A Winter Storm Watch means there is a potential for significant
snow... sleet... and/or ice accumulations. Future driving
conditions may become hazardous... so continue to monitor the
latest forecasts.